Fenland Airfield


Codes: EGCL/
Name: Fenland Airfield
City: Spalding
Country: United Kingdom
Elevation: 8 ft.
Wikipedia:

Photos at Fenland Airfield


   Photos courtesy of SpottingLog. You can add your own sightings and photos by signing up for a free trial today.



No photos found.

Weather at Fenland Airfield


Time (UTC)DescriptionTempratureWindCloud coverageVisibilityPressureHumidity
17-Jun-2024 06:00Scattered Clouds10°C9 mph, SW40%10000m1003hPa83%
17-Jun-2024 09:00Scattered Clouds12°C11 mph, SW29%10000m1005hPa80%
17-Jun-2024 12:00Light Rain15°C11 mph, W31%8614m1008hPa77%
17-Jun-2024 15:00Light Rain18°C9 mph, W81%10000m1010hPa77%
17-Jun-2024 18:00Light Rain17°C4 mph, W44%10000m1011hPa78%
17-Jun-2024 21:00Light Rain13°C4 mph, W51%10000m1013hPa88%
18-Jun-2024 00:00Scattered Clouds10°C7 mph, W35%10000m1014hPa92%
18-Jun-2024 03:00Overcast Clouds9°C7 mph, W92%10000m1014hPa94%
18-Jun-2024 06:00Broken Clouds11°C4 mph, NW81%10000m1015hPa90%
18-Jun-2024 09:00Few Clouds16°C7 mph, NW15%10000m1016hPa78%
18-Jun-2024 12:00Light Rain17°C11 mph, NE36%10000m1016hPa76%
18-Jun-2024 15:00Broken Clouds16°C13 mph, NE55%10000m1017hPa76%
18-Jun-2024 18:00Scattered Clouds14°C11 mph, NE29%10000m1018hPa82%
18-Jun-2024 21:00Clear Sky10°C7 mph, N0%10000m1020hPa96%
19-Jun-2024 00:00Clear Sky9°C7 mph, N2%10000m1021hPa97%
19-Jun-2024 03:00Overcast Clouds9°C7 mph, N100%10000m1021hPa98%
19-Jun-2024 06:00Overcast Clouds11°C4 mph, N100%10000m1022hPa93%
19-Jun-2024 09:00Overcast Clouds15°C4 mph, N95%10000m1023hPa75%
19-Jun-2024 12:00Overcast Clouds18°C2 mph, NE98%10000m1023hPa65%
19-Jun-2024 15:00Overcast Clouds19°C2 mph, W100%10000m1022hPa60%
19-Jun-2024 18:00Overcast Clouds18°C2 mph, SW100%10000m1022hPa75%
19-Jun-2024 21:00Overcast Clouds14°C4 mph, W100%10000m1023hPa81%
20-Jun-2024 00:00Broken Clouds11°C7 mph, S82%10000m1023hPa94%
20-Jun-2024 03:00Overcast Clouds11°C2 mph, SW92%10000m1021hPa94%
20-Jun-2024 06:00Broken Clouds13°C4 mph, SW71%10000m1021hPa86%
20-Jun-2024 09:00Scattered Clouds17°C2 mph, SE44%10000m1021hPa72%
20-Jun-2024 12:00Broken Clouds20°C7 mph, SE71%10000m1019hPa59%
20-Jun-2024 15:00Overcast Clouds20°C7 mph, SE100%10000m1017hPa65%
20-Jun-2024 18:00Overcast Clouds17°C7 mph, E100%10000m1016hPa78%
20-Jun-2024 21:00Broken Clouds12°C7 mph, SE83%10000m1016hPa91%
21-Jun-2024 00:00Broken Clouds10°C2 mph, N77%10000m1014hPa93%
21-Jun-2024 03:00Broken Clouds10°C4 mph, NW63%10000m1013hPa93%
21-Jun-2024 06:00Broken Clouds12°C7 mph, N67%10000m1011hPa85%
21-Jun-2024 09:00Overcast Clouds16°C7 mph, N87%10000m1011hPa70%
21-Jun-2024 12:00Overcast Clouds19°C7 mph, NW86%10000m1010hPa63%
21-Jun-2024 15:00Broken Clouds18°C7 mph, SW77%10000m1010hPa72%
21-Jun-2024 18:00Light Rain19°C7 mph, SW88%10000m1009hPa77%
21-Jun-2024 21:00Light Rain16°C7 mph, S100%10000m1010hPa86%
22-Jun-2024 00:00Light Rain14°C7 mph, S97%10000m1009hPa98%
22-Jun-2024 03:00Few Clouds12°C7 mph, SW24%10000m1009hPa97%